Time;durP1;ratioP1;P1;durP2;ratioP2;P2;SDS_P1;SDS_P2;PMS_P1;PMS_P2;Temp;Humidity;BMP_temperature;BMP_pressure;BME280_temperature;BME280_humidity;BME280_pressure;Samples;Min_cycle;Max_cycle;Signal;HPM_P1;HPM_P2
2022/12/08 00:00:52;;;;;;;3.28;2.67;;;;;;;3.69;100.00;101134.22;10390775;28;20030;-72
2022/12/08 00:11:12;;;;;;;2.83;2.63;;;;;;;3.58;100.00;101118.34;10372826;28;20030;-72
2022/12/08 00:16:13;;;;;;;4.47;4.07;;;;;;;3.56;100.00;101101.59;10389354;28;20037;-72
2022/12/08 00:21:13;;;;;;;5.55;5.05;;;;;;;3.48;100.00;101095.13;10373474;28;20050;-72
2022/12/08 00:26:13;;;;;;;4.97;4.57;;;;;;;3.47;100.00;101076.53;10374665;28;20034;-72
2022/12/08 00:31:14;;;;;;;10.30;5.95;;;;;;;3.43;100.00;101077.81;10372443;28;20034;-72
2022/12/08 00:36:14;;;;;;;14.95;6.53;;;;;;;3.48;100.00;101067.53;10372601;28;20030;-72
2022/12/08 00:41:16;;;;;;;6.35;5.50;;;;;;;3.52;100.00;101057.34;10389522;28;20030;-72
2022/12/08 00:46:17;;;;;;;13.48;5.38;;;;;;;3.64;100.00;101059.69;10378652;28;20450;-72
2022/12/08 00:51:17;;;;;;;11.27;5.10;;;;;;;3.70;100.00;101052.88;10396223;28;20045;-72
2022/12/08 00:56:17;;;;;;;6.68;4.03;;;;;;;3.76;100.00;101044.25;10381063;28;20124;-72
2022/12/08 01:01:18;;;;;;;11.65;4.68;;;;;;;3.80;100.00;101061.72;10381663;28;20034;-72
2022/12/08 01:06:18;;;;;;;6.35;2.40;;;;;;;4.01;100.00;101060.59;10379285;28;20425;-72
2022/12/08 01:11:19;;;;;;;8.18;3.63;;;;;;;4.16;100.00;101051.91;10380217;28;20046;-72
2022/12/08 01:16:23;;;;;;;5.47;3.25;;;;;;;4.23;100.00;101043.25;10396355;28;20087;-71
2022/12/08 01:21:24;;;;;;;10.32;3.85;;;;;;;4.23;100.00;101048.59;10378469;28;20141;-72
2022/12/08 01:26:24;;;;;;;3.67;3.40;;;;;;;4.17;100.00;101028.59;10378952;28;20109;-72
2022/12/08 01:31:24;;;;;;;10.55;4.38;;;;;;;4.14;100.00;101026.22;10378731;28;20060;-72
2022/12/08 01:36:26;;;;;;;7.40;3.03;;;;;;;4.10;100.00;101031.06;10378277;28;20026;-72
2022/12/08 01:41:29;;;;;;;5.70;2.72;;;;;;;4.05;100.00;101019.09;10394956;28;20061;-72
2022/12/08 01:46:31;;;;;;;3.42;2.45;;;;;;;4.04;100.00;101014.75;10377129;28;20037;-72
2022/12/08 01:51:33;;;;;;;3.65;1.95;;;;;;;4.09;100.00;101013.31;10378514;28;20096;-72
2022/12/08 01:56:48;;;;;;;10.80;2.42;;;;;;;4.26;100.00;101018.81;10392792;28;20061;-72
2022/12/08 02:01:48;;;;;;;1.50;1.50;;;;;;;4.35;100.00;101017.91;10377438;28;20426;-71
2022/12/08 02:06:48;;;;;;;0.50;0.50;;;;;;;4.27;100.00;101021.31;10393325;28;20057;-73
2022/12/08 02:11:55;;;;;;;0.60;0.60;;;;;;;4.01;100.00;101023.09;10376020;28;20121;-73
2022/12/08 02:17:07;;;;;;;0.60;0.60;;;;;;;4.06;100.00;101027.00;10377236;28;20030;-72
2022/12/08 02:22:17;;;;;;;0.43;0.43;;;;;;;4.15;100.00;101011.88;10392262;28;20057;-72
2022/12/08 02:27:43;;;;;;;0.57;0.57;;;;;;;4.12;100.00;101004.13;10361460;28;20052;-72
2022/12/08 02:32:49;;;;;;;0.52;0.52;;;;;;;4.17;100.00;101007.16;10376987;28;20458;-72
2022/12/08 02:37:56;;;;;;;0.75;0.75;;;;;;;4.21;100.00;100992.47;10376184;28;20060;-72
2022/12/08 02:43:22;;;;;;;0.50;0.50;;;;;;;4.23;100.00;100982.44;10376196;28;20042;-72
2022/12/08 02:48:22;;;;;;;0.60;0.60;;;;;;;4.26;100.00;100968.72;10388768;28;20409;-72
2022/12/08 02:53:22;;;;;;;0.60;0.60;;;;;;;4.30;100.00;100975.44;10376575;28;20121;-72
2022/12/08 02:58:29;;;;;;;0.60;0.60;;;;;;;4.32;100.00;100968.09;10376632;28;20065;-72
2022/12/08 03:03:35;;;;;;;0.57;0.57;;;;;;;4.31;100.00;100963.75;10392443;28;20402;-71
2022/12/08 03:08:57;;;;;;;0.45;0.45;;;;;;;4.34;100.00;100952.72;10390778;28;20189;-71
2022/12/08 03:13:59;;;;;;;0.50;0.50;;;;;;;4.38;100.00;100947.88;10375079;28;20034;-71
2022/12/08 03:19:14;;;;;;;0.50;0.50;;;;;;;4.53;100.00;100943.66;10357968;28;20038;-71
2022/12/08 03:24:14;;;;;;;0.60;0.60;;;;;;;4.54;100.00;100928.38;10389643;28;20140;-72
2022/12/08 03:29:15;;;;;;;0.57;0.57;;;;;;;4.52;100.00;100930.38;10374164;28;20066;-72
2022/12/08 03:34:15;;;;;;;0.50;0.50;;;;;;;4.51;100.00;100929.53;10390627;28;20021;-72
2022/12/08 03:39:15;;;;;;;0.50;0.50;;;;;;;4.51;100.00;100923.34;10373778;28;20038;-72
2022/12/08 03:44:16;;;;;;;0.50;0.50;;;;;;;4.49;100.00;100911.91;10373664;28;20029;-72
2022/12/08 03:49:16;;;;;;;0.50;0.50;;;;;;;4.50;100.00;100910.91;10373463;28;20034;-72
2022/12/08 03:54:17;;;;;;;0.65;0.65;;;;;;;4.46;100.00;100902.34;10374570;28;20129;-72
2022/12/08 03:59:17;;;;;;;0.50;0.50;;;;;;;4.48;100.00;100903.03;10389209;28;20088;-72
2022/12/08 04:04:17;;;;;;;0.68;0.68;;;;;;;4.46;100.00;100910.38;10390062;28;20091;-72
2022/12/08 04:09:18;;;;;;;1.58;1.58;;;;;;;4.34;100.00;100914.31;10374472;28;20045;-72
2022/12/08 04:14:18;;;;;;;0.50;0.50;;;;;;;4.16;100.00;100925.09;10389453;28;20069;-71
2022/12/08 04:19:19;;;;;;;0.60;0.60;;;;;;;4.06;100.00;100914.47;10359671;28;20049;-72
2022/12/08 04:24:19;;;;;;;1.40;1.40;;;;;;;4.01;100.00;100926.63;10396468;28;20054;-71
2022/12/08 04:29:19;;;;;;;0.40;0.40;;;;;;;4.18;100.00;100902.50;10397123;28;20053;-72
2022/12/08 04:34:20;;;;;;;0.40;0.40;;;;;;;4.24;100.00;100909.06;10381002;28;20532;-72
2022/12/08 04:39:20;;;;;;;0.50;0.50;;;;;;;4.24;100.00;100903.69;10396229;28;20109;-72
2022/12/08 04:44:20;;;;;;;0.70;0.70;;;;;;;4.21;100.00;100890.59;10380258;28;20050;-72
2022/12/08 04:49:21;;;;;;;0.60;0.60;;;;;;;4.12;100.00;100886.22;10379945;28;20037;-72
2022/12/08 04:54:21;;;;;;;0.50;0.50;;;;;;;3.99;100.00;100878.56;10379686;28;20124;-72
2022/12/08 04:59:22;;;;;;;0.50;0.50;;;;;;;3.95;100.00;100877.19;10379483;28;20046;-72
2022/12/08 05:04:22;;;;;;;0.50;0.50;;;;;;;3.95;100.00;100869.97;10383768;28;20041;-72
2022/12/08 05:09:23;;;;;;;0.60;0.60;;;;;;;3.97;100.00;100867.16;10380945;28;20042;-72
2022/12/08 05:14:23;;;;;;;0.40;0.40;;;;;;;4.05;100.00;100858.34;10380112;28;20034;-72
2022/12/08 05:19:23;;;;;;;0.60;0.60;;;;;;;4.07;100.00;100856.34;10396451;28;20100;-72
2022/12/08 05:24:24;;;;;;;0.60;0.60;;;;;;;3.99;100.00;100850.91;10380162;28;20494;-72
2022/12/08 05:29:24;;;;;;;0.68;0.68;;;;;;;3.93;100.00;100853.25;10394071;28;20390;-74
2022/12/08 05:34:25;;;;;;;0.80;0.80;;;;;;;3.89;100.00;100873.31;10378702;28;20121;-73
2022/12/08 05:39:25;;;;;;;0.40;0.40;;;;;;;3.87;100.00;100869.94;10395083;28;20095;-73
2022/12/08 05:44:26;;;;;;;0.55;0.55;;;;;;;3.95;100.00;100879.84;10378947;28;20045;-73
2022/12/08 05:49:26;;;;;;;0.60;0.60;;;;;;;3.79;100.00;100883.25;10394637;28;20038;-71
2022/12/08 05:54:26;;;;;;;0.52;0.52;;;;;;;3.64;100.00;100882.13;10362763;28;20143;-72
2022/12/08 05:59:27;;;;;;;1.25;1.25;;;;;;;3.44;100.00;100887.59;10420402;28;20034;-73
2022/12/08 06:04:27;;;;;;;0.50;0.50;;;;;;;3.33;100.00;100885.13;10419633;28;20457;-73
2022/12/08 06:09:27;;;;;;;0.60;0.60;;;;;;;3.25;100.00;100887.72;10434539;28;20038;-73
2022/12/08 06:14:28;;;;;;;0.47;0.47;;;;;;;3.08;100.00;100881.34;10418457;28;20029;-73
2022/12/08 06:19:28;;;;;;;0.40;0.40;;;;;;;3.08;100.00;100886.69;10400686;28;20049;-73
2022/12/08 06:24:29;;;;;;;0.57;0.57;;;;;;;3.13;100.00;100884.44;10418484;28;20107;-73
2022/12/08 06:29:29;;;;;;;8.27;7.43;;;;;;;3.16;100.00;100875.22;10432730;28;20041;-72
2022/12/08 06:34:30;;;;;;;0.50;0.50;;;;;;;3.20;100.00;100871.28;10417322;28;20030;-72
2022/12/08 06:39:30;;;;;;;0.60;0.60;;;;;;;3.24;100.00;100867.31;10418299;28;20037;-72
2022/12/08 06:44:30;;;;;;;0.57;0.57;;;;;;;3.27;100.00;100861.66;10417106;28;20030;-72
2022/12/08 06:49:31;;;;;;;1.77;1.70;;;;;;;3.31;100.00;100865.69;10417868;28;20037;-72
2022/12/08 06:54:31;;;;;;;0.70;0.70;;;;;;;3.33;100.00;100870.91;10433224;28;20052;-72
2022/12/08 06:59:32;;;;;;;0.60;0.60;;;;;;;3.31;100.00;100857.66;10416896;28;20068;-72
2022/12/08 07:04:32;;;;;;;0.40;0.40;;;;;;;3.29;100.00;100840.06;10432186;28;20124;-72
2022/12/08 07:09:32;;;;;;;0.55;0.55;;;;;;;3.37;100.00;100851.72;10432075;28;20485;-72
2022/12/08 07:14:33;;;;;;;0.70;0.70;;;;;;;3.42;100.00;100832.53;10417042;28;20076;-71
2022/12/08 07:19:33;;;;;;;0.70;0.70;;;;;;;3.38;100.00;100850.75;10415134;28;20539;-71
2022/12/08 07:24:33;;;;;;;0.50;0.50;;;;;;;3.32;100.00;100847.81;10432725;28;20049;-71
2022/12/08 07:29:34;;;;;;;0.70;0.70;;;;;;;3.29;100.00;100842.75;10416702;28;20120;-71
2022/12/08 07:34:34;;;;;;;0.50;0.50;;;;;;;3.20;100.00;100844.53;10416938;28;20069;-72
2022/12/08 07:39:35;;;;;;;0.70;0.70;;;;;;;3.22;100.00;100846.06;10432285;28;20041;-71
2022/12/08 07:44:35;;;;;;;0.70;0.70;;;;;;;3.23;100.00;100849.56;10415634;28;20029;-72
2022/12/08 07:49:35;;;;;;;0.60;0.60;;;;;;;3.25;100.00;100842.22;10414376;28;20516;-72
2022/12/08 07:54:36;;;;;;;0.63;0.63;;;;;;;3.28;100.00;100855.28;10434801;28;20041;-72
2022/12/08 07:59:36;;;;;;;0.50;0.50;;;;;;;3.23;100.00;100842.38;10424602;28;20415;-72
2022/12/08 08:04:37;;;;;;;0.60;0.60;;;;;;;3.21;100.00;100832.81;10406095;28;20087;-72
2022/12/08 08:09:37;;;;;;;0.50;0.50;;;;;;;3.17;100.00;100834.97;10424081;28;20046;-72
2022/12/08 08:14:37;;;;;;;0.60;0.60;;;;;;;3.20;100.00;100840.00;10423838;28;20086;-72
2022/12/08 08:19:38;;;;;;;0.60;0.60;;;;;;;3.25;100.00;100840.41;10439304;28;20037;-72
2022/12/08 08:24:38;;;;;;;0.60;0.60;;;;;;;3.28;100.00;100844.59;10422326;28;20112;-72
2022/12/08 08:29:39;;;;;;;0.50;0.50;;;;;;;3.41;100.00;100857.59;10422195;28;20378;-72
2022/12/08 08:34:39;;;;;;;0.43;0.43;;;;;;;3.41;100.00;100874.50;10420983;28;20044;-72
2022/12/08 08:39:41;;;;;;;0.50;0.50;;;;;;;3.08;100.00;100864.44;10423115;28;20051;-72
2022/12/08 08:44:42;;;;;;;0.50;0.50;;;;;;;2.79;100.00;100870.78;10437666;28;20033;-73
2022/12/08 08:49:42;;;;;;;0.70;0.70;;;;;;;2.63;100.00;100876.78;10438032;28;20034;-73
2022/12/08 08:54:43;;;;;;;0.50;0.50;;;;;;;2.46;100.00;100886.41;10421283;28;20572;-74
2022/12/08 08:59:43;;;;;;;0.80;0.80;;;;;;;2.25;100.00;100902.63;10422760;28;20042;-74
2022/12/08 09:04:44;;;;;;;0.70;0.70;;;;;;;2.11;100.00;100900.41;10421465;28;20030;-74
2022/12/08 09:09:44;;;;;;;0.50;0.50;;;;;;;2.15;100.00;100903.63;10421498;28;20465;-74
2022/12/08 09:14:44;;;;;;;0.60;0.60;;;;;;;2.25;100.00;100888.41;10420301;28;20383;-74
2022/12/08 09:19:45;;;;;;;0.60;0.60;;;;;;;2.31;100.00;100877.16;10421005;28;20045;-73
2022/12/08 09:24:45;;;;;;;0.60;0.60;;;;;;;2.44;100.00;100876.84;10419695;28;20057;-73
2022/12/08 09:29:46;;;;;;;0.70;0.70;;;;;;;2.62;100.00;100882.28;10420334;28;20462;-73
2022/12/08 09:34:46;;;;;;;0.75;0.75;;;;;;;2.70;100.00;100877.03;10421503;28;20116;-72
2022/12/08 09:39:47;;;;;;;0.70;0.70;;;;;;;2.71;100.00;100878.69;10420228;28;20060;-72
2022/12/08 09:44:58;;;;;;;0.63;0.63;;;;;;;2.82;100.00;100873.19;10420571;28;20037;-73
2022/12/08 09:50:19;;;;;;;0.82;0.82;;;;;;;2.84;100.00;100865.00;10419798;28;20052;-72
2022/12/08 09:55:24;;;;;;;0.52;0.52;;;;;;;2.88;100.00;100869.91;10420674;28;20045;-73
2022/12/08 10:00:24;;;;;;;0.80;0.80;;;;;;;2.90;100.00;100870.59;10418630;28;20038;-72
2022/12/08 10:05:25;;;;;;;0.60;0.60;;;;;;;2.97;100.00;100884.22;10420327;28;20033;-72
2022/12/08 10:10:48;;;;;;;0.50;0.50;;;;;;;2.94;100.00;100895.22;10401786;28;20041;-72
2022/12/08 10:15:58;;;;;;;0.63;0.63;;;;;;;2.98;100.00;100889.41;10417344;28;20044;-73
2022/12/08 10:21:21;;;;;;;0.80;0.80;;;;;;;3.11;100.00;100869.50;10419166;28;20061;-73
2022/12/08 10:26:21;;;;;;;0.60;0.60;;;;;;;3.20;100.00;100865.94;10418195;28;20033;-73
2022/12/08 10:31:23;;;;;;;0.60;0.60;;;;;;;3.19;100.00;100870.44;10418021;28;20140;-73
2022/12/08 10:36:44;;;;;;;0.68;0.68;;;;;;;3.07;100.00;100863.63;10400177;28;20059;-73
2022/12/08 10:41:45;;;;;;;0.68;0.68;;;;;;;2.92;100.00;100833.84;10417116;28;20030;-72
2022/12/08 10:46:45;;;;;;;0.60;0.60;;;;;;;2.85;100.00;100816.72;10417578;28;20469;-73
2022/12/08 10:51:46;;;;;;;0.57;0.57;;;;;;;3.01;100.00;100800.84;10419092;28;20080;-73
2022/12/08 10:56:52;;;;;;;0.60;0.60;;;;;;;3.14;100.00;100800.47;10417263;28;20029;-72
2022/12/08 11:01:53;;;;;;;0.70;0.70;;;;;;;3.21;100.00;100795.34;10415803;28;20029;-73
2022/12/08 11:06:54;;;;;;;0.50;0.50;;;;;;;3.03;100.00;100787.31;10415843;28;20039;-73
2022/12/08 11:12:13;;;;;;;0.57;0.57;;;;;;;3.00;100.00;100796.50;10416963;28;20038;-73
2022/12/08 11:17:25;;;;;;;0.63;0.63;;;;;;;3.14;100.00;100791.63;10433155;28;20036;-72
2022/12/08 11:22:26;;;;;;;0.60;0.60;;;;;;;3.18;100.00;100774.25;10414873;28;20128;-71
2022/12/08 11:27:26;;;;;;;0.70;0.70;;;;;;;3.22;100.00;100781.84;10431703;28;20107;-71
2022/12/08 11:32:27;;;;;;;0.70;0.70;;;;;;;3.29;100.00;100816.00;10431531;28;20040;-71
2022/12/08 11:37:34;;;;;;;0.60;0.60;;;;;;;3.23;100.00;100836.19;10417003;28;20584;-73
2022/12/08 11:42:37;;;;;;;0.80;0.80;;;;;;;2.93;100.00;100848.06;10419385;28;20044;-74
2022/12/08 11:47:47;;;;;;;0.70;0.70;;;;;;;2.68;100.00;100825.50;10406014;28;20033;-74
2022/12/08 11:52:49;;;;;;;0.50;0.50;;;;;;;2.52;100.00;100802.09;10436612;28;20491;-74
2022/12/08 11:57:49;;;;;;;0.50;0.50;;;;;;;2.50;100.00;100774.69;10434739;28;20462;-73
2022/12/08 12:02:58;;;;;;;0.68;0.68;;;;;;;2.61;100.00;100770.97;10418718;28;20029;-73
2022/12/08 12:08:17;;;;;;;0.68;0.68;;;;;;;2.74;100.00;100782.13;10416266;28;20025;-73
2022/12/08 12:13:45;;;;;;;0.50;0.50;;;;;;;2.84;100.00;100766.03;10416204;28;20029;-73
2022/12/08 12:18:49;;;;;;;0.60;0.60;;;;;;;2.78;100.00;100744.28;10414048;28;20049;-72
2022/12/08 12:24:06;;;;;;;0.82;0.82;;;;;;;2.64;100.00;100742.09;10415704;28;20521;-72
2022/12/08 12:29:12;;;;;;;0.77;0.77;;;;;;;2.54;100.00;100736.81;10414764;28;20068;-72
2022/12/08 12:34:16;;;;;;;0.65;0.65;;;;;;;2.48;100.00;100734.72;10413000;28;20362;-72
2022/12/08 12:39:19;;;;;;;0.70;0.70;;;;;;;2.50;100.00;100727.41;10417038;28;20091;-72
2022/12/08 12:44:23;;;;;;;0.90;0.90;;;;;;;3.61;100.00;100713.72;10422202;28;20085;-72
2022/12/08 12:49:42;;;;;;;0.70;0.70;;;;;;;4.40;100.00;100710.81;10420412;28;20031;-72
2022/12/08 12:54:49;;;;;;;0.60;0.60;;;;;;;4.63;100.00;100718.25;10421622;28;20075;-72
2022/12/08 12:59:52;;;;;;;0.70;0.70;;;;;;;4.33;100.00;100731.19;10421531;28;20033;-71
2022/12/08 13:05:16;;;;;;;0.60;0.60;;;;;;;4.07;100.00;100727.72;10422489;28;20118;-71
2022/12/08 13:10:24;;;;;;;0.50;0.50;;;;;;;3.78;100.00;100739.59;10419539;28;20033;-71
2022/12/08 13:15:24;;;;;;;0.70;0.70;;;;;;;3.71;100.00;100725.19;10437468;28;20025;-71
2022/12/08 13:20:24;;;;;;;0.60;0.60;;;;;;;3.65;100.00;100717.75;10420439;28;20037;-71
2022/12/08 13:25:43;;;;;;;0.45;0.45;;;;;;;3.45;100.00;100723.31;10419399;28;20124;-71
2022/12/08 13:30:49;;;;;;;2.25;2.15;;;;;;;3.29;100.00;100712.50;10418716;28;20025;-71
2022/12/08 13:36:22;;;;;;;0.60;0.60;;;;;;;3.22;100.00;100708.72;10421267;28;20025;-71
2022/12/08 13:41:34;;;;;;;0.60;0.60;;;;;;;3.17;100.00;100686.97;10402146;28;20116;-71
2022/12/08 13:46:38;;;;;;;0.52;0.52;;;;;;;3.29;100.00;100685.72;10419248;28;20025;-71
2022/12/08 13:51:42;;;;;;;0.73;0.73;;;;;;;3.68;100.00;100696.03;10417357;28;20052;-71
2022/12/08 13:56:43;;;;;;;0.50;0.50;;;;;;;3.71;100.00;100701.06;10434320;28;20037;-71
2022/12/08 14:01:43;;;;;;;0.60;0.60;;;;;;;3.42;100.00;100690.66;10418046;28;20465;-71
2022/12/08 14:06:45;;;;;;;0.70;0.70;;;;;;;3.18;100.00;100700.16;10417761;28;20084;-72
2022/12/08 14:11:50;;;;;;;0.60;0.60;;;;;;;3.00;100.00;100712.75;10433635;28;20033;-73
2022/12/08 14:16:55;;;;;;;0.60;0.60;;;;;;;2.78;100.00;100704.16;10433093;28;20517;-73
2022/12/08 14:22:00;;;;;;;0.50;0.50;;;;;;;2.72;100.00;100706.59;10433220;28;20466;-72
2022/12/08 14:27:03;;;;;;;0.77;0.77;;;;;;;2.72;100.00;100694.06;10419778;28;20417;-73
2022/12/08 14:32:18;;;;;;;0.68;0.68;;;;;;;2.77;100.00;100696.28;10433211;28;20390;-73
2022/12/08 14:37:18;;;;;;;0.57;0.57;;;;;;;2.68;100.00;100697.19;10417392;28;20033;-73
2022/12/08 14:42:24;;;;;;;0.70;0.70;;;;;;;2.58;100.00;100699.09;10433666;28;20038;-74
2022/12/08 14:47:29;;;;;;;0.60;0.60;;;;;;;2.48;100.00;100686.63;10432803;28;20431;-74
2022/12/08 14:52:30;;;;;;;0.70;0.70;;;;;;;2.47;100.00;100684.94;10417290;28;20041;-73
2022/12/08 14:57:32;;;;;;;0.73;0.73;;;;;;;2.47;100.00;100684.13;10432514;28;20030;-72
2022/12/08 15:02:33;;;;;;;0.60;0.60;;;;;;;2.55;100.00;100685.06;10414975;28;20060;-72
2022/12/08 15:07:55;;;;;;;1.60;1.60;;;;;;;2.40;100.00;100670.50;10416786;28;20069;-73
2022/12/08 15:13:00;;;;;;;0.70;0.70;;;;;;;2.30;100.00;100675.09;10415795;28;20079;-73
2022/12/08 15:18:11;;;;;;;0.70;0.70;;;;;;;2.30;100.00;100667.06;10417049;28;20026;-72
2022/12/08 15:23:20;;;;;;;0.50;0.50;;;;;;;2.22;100.00;100653.59;10416141;28;20045;-72
2022/12/08 15:28:22;;;;;;;0.50;0.50;;;;;;;2.00;100.00;100650.34;10416122;28;20107;-72
2022/12/08 15:33:23;;;;;;;0.68;0.68;;;;;;;1.86;100.00;100653.50;10414811;28;20037;-72
2022/12/08 15:38:24;;;;;;;0.80;0.80;;;;;;;1.81;100.00;100656.59;10432523;28;20037;-72
2022/12/08 15:43:25;;;;;;;0.40;0.40;;;;;;;1.77;100.00;100659.72;10414398;28;20033;-72
2022/12/08 15:48:26;;;;;;;0.60;0.60;;;;;;;1.70;100.00;100670.16;10416861;28;20041;-72
2022/12/08 15:53:27;;;;;;;0.60;0.60;;;;;;;1.64;100.00;100668.06;10414358;28;20029;-72
2022/12/08 15:58:27;;;;;;;0.57;0.57;;;;;;;1.65;100.00;100668.91;10415539;28;20128;-71
2022/12/08 16:03:28;;;;;;;0.65;0.65;;;;;;;1.86;100.00;100666.84;10413540;28;20115;-71
2022/12/08 16:08:29;;;;;;;0.77;0.77;;;;;;;2.17;100.00;100669.22;10430527;28;20091;-71
2022/12/08 16:18:48;;;;;;;0.68;0.68;;;;;;;2.33;100.00;100656.91;10436005;28;20042;-72
2022/12/08 16:23:49;;;;;;;0.50;0.50;;;;;;;2.48;100.00;100646.53;10437983;28;20045;-71
2022/12/08 16:28:49;;;;;;;0.60;0.60;;;;;;;2.52;100.00;100639.91;10421650;28;20405;-71
2022/12/08 16:33:50;;;;;;;0.68;0.68;;;;;;;2.54;100.00;100645.94;10438218;28;20120;-71
2022/12/08 16:38:50;;;;;;;0.60;0.60;;;;;;;2.59;100.00;100644.66;10421454;28;20042;-71
2022/12/08 16:43:51;;;;;;;0.77;0.77;;;;;;;2.58;100.00;100648.31;10422567;28;20468;-71
2022/12/08 16:48:54;;;;;;;0.60;0.60;;;;;;;2.48;100.00;100641.19;10422505;28;20037;-71
2022/12/08 16:53:55;;;;;;;0.93;0.93;;;;;;;2.32;100.00;100649.03;10424147;28;20484;-71
2022/12/08 16:58:56;;;;;;;0.73;0.73;;;;;;;2.18;100.00;100639.69;10420794;28;20040;-71
2022/12/08 17:03:56;;;;;;;0.80;0.80;;;;;;;2.10;100.00;100634.25;10437633;28;20049;-71
2022/12/08 17:08:57;;;;;;;0.80;0.80;;;;;;;2.06;100.00;100625.69;10420880;28;20116;-71
2022/12/08 17:13:58;;;;;;;0.60;0.60;;;;;;;2.05;100.00;100637.38;10421405;28;20065;-71
2022/12/08 17:18:58;;;;;;;5.82;2.80;;;;;;;2.11;100.00;100633.28;10436729;28;20052;-71
2022/12/08 17:23:59;;;;;;;0.70;0.70;;;;;;;1.96;100.00;100624.91;10437013;28;20057;-71
2022/12/08 17:29:00;;;;;;;0.82;0.82;;;;;;;1.96;100.00;100632.94;10420595;28;20393;-71
2022/12/08 17:34:01;;;;;;;0.80;0.80;;;;;;;1.92;100.00;100628.88;10418792;28;20030;-71
2022/12/08 17:39:02;;;;;;;0.60;0.60;;;;;;;1.73;100.00;100610.28;10402569;28;20116;-71
2022/12/08 17:44:09;;;;;;;0.70;0.70;;;;;;;1.48;100.00;100615.28;10419040;28;20065;-71
2022/12/08 17:49:17;;;;;;;0.75;0.75;;;;;;;1.46;100.00;100614.59;10418431;28;20034;-71
2022/12/08 17:54:18;;;;;;;0.70;0.70;;;;;;;1.38;100.00;100612.66;10420475;28;20108;-71
2022/12/08 17:59:19;;;;;;;0.70;0.70;;;;;;;1.36;100.00;100611.13;10420832;28;20045;-71
2022/12/08 18:04:19;;;;;;;0.95;0.95;;;;;;;1.30;100.00;100614.34;10437901;28;20088;-71
2022/12/08 18:09:19;;;;;;;0.57;0.57;;;;;;;1.30;100.00;100598.34;10418201;28;20455;-71
2022/12/08 18:14:20;;;;;;;0.70;0.70;;;;;;;1.43;100.00;100598.88;10435027;28;20033;-71
2022/12/08 18:19:20;;;;;;;0.60;0.60;;;;;;;1.45;100.00;100599.56;10418178;28;20196;-71
2022/12/08 18:24:22;;;;;;;0.70;0.70;;;;;;;1.41;100.00;100602.69;10420501;28;20049;-71
2022/12/08 18:29:22;;;;;;;0.80;0.80;;;;;;;1.32;100.00;100586.56;10418326;28;20078;-71
2022/12/08 18:34:23;;;;;;;0.70;0.70;;;;;;;1.38;100.00;100587.81;10418084;28;20026;-71
2022/12/08 18:39:25;;;;;;;0.75;0.75;;;;;;;1.56;100.00;100593.19;10416813;28;20041;-71
2022/12/08 18:44:27;;;;;;;1.25;1.25;;;;;;;1.60;100.00;100597.28;10417824;28;20036;-71
2022/12/08 18:49:27;;;;;;;2.70;2.60;;;;;;;1.44;100.00;100605.91;10432925;28;20034;-71
2022/12/08 18:54:28;;;;;;;0.80;0.80;;;;;;;1.26;100.00;100611.13;10418305;28;20446;-71
2022/12/08 18:59:28;;;;;;;0.63;0.63;;;;;;;1.11;100.00;100617.91;10433221;28;20122;-71
2022/12/08 19:04:28;;;;;;;0.73;0.73;;;;;;;0.96;100.00;100614.88;10416658;28;20118;-71
2022/12/08 19:09:29;;;;;;;0.82;0.82;;;;;;;0.94;100.00;100624.81;10417875;28;20030;-71
2022/12/08 19:14:29;;;;;;;0.80;0.80;;;;;;;1.06;100.00;100629.00;10416761;28;20065;-71
2022/12/08 19:19:30;;;;;;;7.63;6.80;;;;;;;1.24;100.00;100633.59;10416067;28;20449;-71
2022/12/08 19:24:33;;;;;;;0.52;0.52;;;;;;;1.38;100.00;100644.66;10416877;28;20179;-71
2022/12/08 19:29:34;;;;;;;0.70;0.70;;;;;;;1.46;100.00;100643.94;10416274;28;20466;-71
2022/12/08 19:34:34;;;;;;;1.00;1.00;;;;;;;1.48;100.00;100652.66;10431569;28;20037;-72
2022/12/08 19:44:53;;;;;;;0.80;0.80;;;;;;;1.40;100.00;100660.53;10415104;28;20064;-72
2022/12/08 19:50:34;;;;;;;0.80;0.80;;;;;;;1.28;100.00;100659.88;10414955;28;20374;-71
2022/12/08 19:55:14;;;;;;;0.60;0.60;;;;;;;1.16;100.00;100672.50;10427729;28;20038;-72
2022/12/08 20:00:15;;;;;;;0.73;0.73;;;;;;;1.08;100.00;100674.19;10430590;28;20424;-74
2022/12/08 20:05:15;;;;;;;0.60;0.60;;;;;;;0.93;100.00;100673.81;10414916;28;20033;-73
2022/12/08 20:10:18;;;;;;;0.50;0.50;;;;;;;0.84;100.00;100679.97;10416065;28;20040;-72
2022/12/08 20:15:18;;;;;;;0.65;0.65;;;;;;;0.75;100.00;100686.13;10414783;28;20026;-73
2022/12/08 20:20:19;;;;;;;0.60;0.60;;;;;;;0.62;100.00;100679.25;10417616;28;20029;-73
2022/12/08 20:25:19;;;;;;;0.60;0.60;;;;;;;0.52;100.00;100678.41;10417309;28;20378;-74
2022/12/08 20:30:21;;;;;;;0.68;0.68;;;;;;;0.50;100.00;100684.84;10413302;28;20030;-75
2022/12/08 20:35:21;;;;;;;0.68;0.68;;;;;;;0.46;100.00;100690.44;10413214;28;20060;-73
2022/12/08 20:40:23;;;;;;;1.17;1.17;;;;;;;0.40;100.00;100700.81;10430185;28;20108;-74
2022/12/08 20:45:23;;;;;;;0.57;0.57;;;;;;;0.31;100.00;100705.13;10430712;28;20030;-74
2022/12/08 20:50:24;;;;;;;0.68;0.68;;;;;;;0.27;100.00;100701.03;10430076;28;20480;-75
2022/12/08 20:55:24;;;;;;;1.05;1.05;;;;;;;0.23;100.00;100696.97;10413417;28;20057;-74
2022/12/08 21:00:26;;;;;;;0.70;0.70;;;;;;;0.26;100.00;100703.88;10414923;28;20068;-72
2022/12/08 21:05:27;;;;;;;0.80;0.80;;;;;;;0.29;100.00;100708.88;10422355;28;20025;-73
2022/12/08 21:10:27;;;;;;;1.65;1.55;;;;;;;0.31;100.00;100713.09;10437349;28;20041;-72
2022/12/08 21:15:27;;;;;;;0.68;0.68;;;;;;;0.31;100.00;100722.91;10421626;28;20062;-72
2022/12/08 21:20:28;;;;;;;0.70;0.70;;;;;;;0.25;100.00;100721.63;10420841;28;20469;-71
2022/12/08 21:25:28;;;;;;;1.30;1.30;;;;;;;0.21;100.00;100726.38;10421384;28;20049;-72
2022/12/08 21:30:29;;;;;;;0.80;0.80;;;;;;;0.19;100.00;100724.84;10422045;28;20041;-70
2022/12/08 21:35:29;;;;;;;0.93;0.93;;;;;;;0.12;100.00;100732.53;10424226;28;20124;-71
2022/12/08 21:40:29;;;;;;;0.80;0.80;;;;;;;0.10;100.00;100726.50;10420258;28;20527;-71
2022/12/08 21:45:32;;;;;;;0.68;0.68;;;;;;;0.08;100.00;100736.44;10419325;28;20033;-72
2022/12/08 21:50:32;;;;;;;0.52;0.52;;;;;;;-0.02;100.00;100730.22;10435362;28;20034;-73
2022/12/08 21:55:33;;;;;;;0.70;0.70;;;;;;;-0.14;100.00;100733.94;10419494;28;20095;-72
2022/12/08 22:00:33;;;;;;;0.73;0.73;;;;;;;-0.29;100.00;100736.09;10419172;28;20045;-72
2022/12/08 22:05:34;;;;;;;4.20;2.45;;;;;;;-0.44;100.00;100732.94;10419226;28;20439;-72
2022/12/08 22:10:34;;;;;;;0.70;0.70;;;;;;;-0.56;100.00;100729.50;10401703;28;20027;-72
2022/12/08 22:15:35;;;;;;;0.80;0.80;;;;;;;-0.53;100.00;100739.88;10417668;28;20033;-72
2022/12/08 22:20:35;;;;;;;6.28;5.88;;;;;;;-0.36;100.00;100738.44;10418903;28;20033;-72
2022/12/08 22:25:35;;;;;;;0.47;0.47;;;;;;;-0.19;100.00;100741.47;10433707;28;20407;-72
2022/12/08 22:30:37;;;;;;;1.17;1.17;;;;;;;-0.14;100.00;100747.25;10418792;28;20084;-71
2022/12/08 22:35:37;;;;;;;0.73;0.73;;;;;;;-0.18;100.00;100751.16;10435895;28;20044;-71
2022/12/08 22:40:39;;;;;;;0.93;0.93;;;;;;;-0.23;100.00;100738.25;10420607;28;20072;-71
2022/12/08 22:45:39;;;;;;;2.30;2.15;;;;;;;-0.37;100.00;100736.78;10417179;28;20021;-71
2022/12/08 22:50:40;;;;;;;3.47;2.58;;;;;;;-0.44;100.00;100734.78;10432548;28;20044;-71
2022/12/08 22:55:43;;;;;;;2.30;2.20;;;;;;;-0.48;100.00;100732.38;10432983;28;20035;-71
2022/12/08 23:00:44;;;;;;;2.65;2.55;;;;;;;-0.39;100.00;100738.72;10415659;28;20529;-71
2022/12/08 23:05:44;;;;;;;0.60;0.60;;;;;;;-0.22;100.00;100739.06;10416057;28;20021;-71
2022/12/08 23:10:45;;;;;;;2.08;1.98;;;;;;;-0.12;100.00;100735.50;10415132;28;20033;-71
2022/12/08 23:15:46;;;;;;;3.05;2.85;;;;;;;-0.11;100.00;100736.34;10433291;28;20466;-71
2022/12/08 23:20:46;;;;;;;1.05;1.05;;;;;;;-0.11;100.00;100723.03;10431518;28;20103;-71
2022/12/08 23:25:47;;;;;;;2.58;2.47;;;;;;;-0.09;100.00;100735.25;10415440;28;20076;-71